Data for 09/30/2018

Time Sea-Level Adjusted Pressure Absolute Pressure Temperature Relative Humidity Dew Point   
(mb) (inHg) (mb) (inHg) (C) (F) (%) (C) (F)
00:05 1021 30.15 850 25.1 2 35.6 75 -2 28.4
00:10 1021 30.15 850 25.1 2.1 35.8 74 -2.1 28.2
00:15 1021 30.15 850 25.1 2.2 35.9 73 -2.2 28
00:20 1021 30.15 850 25.1 2.2 35.9 75 -1.8 28.8
00:25 1021 30.15 850 25.1 2 35.6 76 -1.8 28.7
00:30 1021 30.15 850 25.1 1.9 35.5 75 -2 28.4
00:35 1021 30.15 850 25.1 1.9 35.4 75 -2.1 28.3
00:40 1021 30.15 850 25.1 1.9 35.4 75 -2 28.4
00:45 1021 30.15 850 25.1 1.9 35.4 75 -2 28.4
00:50 1021 30.15 850 25.1 1.9 35.4 75 -2 28.3
00:55 1021 30.15 851 25.13 1.8 35.3 76 -2 28.4
01:00 1021 30.15 851 25.13 1.7 35.1 76 -2 28.4
01:05 1021 30.15 851 25.13 1.6 34.9 77 -1.9 28.5
01:10 1022 30.18 851 25.13 1.5 34.8 77 -2 28.4
01:15 1021 30.15 851 25.13 1.5 34.8 77 -2 28.3
01:20 1021 30.15 850 25.1 1.5 34.7 77 -2.1 28.3
01:25 1021 30.15 850 25.1 1.5 34.8 76 -2.2 28
01:30 1021 30.15 850 25.1 1.6 34.9 76 -2.2 28
01:35 1021 30.15 850 25.1 1.6 34.9 75 -2.3 27.8
01:40 1021 30.15 850 25.1 1.6 35 75 -2.4 27.8
01:45 1021 30.15 850 25.1 1.7 35 74 -2.4 27.7
01:50 1021 30.15 850 25.1 1.7 35 74 -2.4 27.6
01:55 1021 30.15 850 25.1 1.6 34.9 74 -2.5 27.5
02:00 1021 30.15 850 25.1 1.6 34.9 74 -2.5 27.6
02:05 1020 30.12 850 25.1 1.6 34.9 74 -2.6 27.3
02:10 1020 30.12 849 25.07 1.6 34.9 74 -2.6 27.3
02:15 1020 30.12 850 25.1 1.6 34.9 73 -2.7 27.2
02:20 1020 30.12 850 25.1 1.6 34.9 73 -2.7 27.2
02:25 1020 30.12 850 25.1 1.6 34.9 73 -2.7 27.1
02:30 1020 30.12 850 25.1 1.6 34.9 73 -2.7 27.1
02:35 1021 30.15 850 25.1 1.6 34.9 73 -2.8 26.9
02:40 1021 30.15 850 25.1 1.6 34.8 73 -2.8 26.9
02:45 1021 30.15 850 25.1 1.5 34.7 73 -2.8 27
02:50 1021 30.15 850 25.1 1.5 34.6 74 -2.7 27.1
02:55 1021 30.15 850 25.1 1.4 34.6 74 -2.6 27.3
03:00 1021 30.15 850 25.1 1.4 34.5 75 -2.5 27.4
03:05 1021 30.15 851 25.13 1.3 34.3 76 -2.5 27.5
03:10 1021 30.15 850 25.1 1.2 34.1 77 -2.4 27.6
03:15 1020 30.12 850 25.1 1.1 33.9 77 -2.5 27.5
03:20 1020 30.12 849 25.07 1 33.8 78 -2.5 27.5
03:25 1020 30.12 849 25.07 1 33.7 77 -2.5 27.4
03:30 1020 30.12 849 25.07 1 33.8 78 -2.4 27.6
03:35 1020 30.12 849 25.07 0.9 33.6 78 -2.6 27.4
03:40 1020 30.12 849 25.07 0.9 33.7 78 -2.5 27.4
03:45 1020 30.12 849 25.07 0.9 33.6 78 -2.6 27.4
03:50 1020 30.12 849 25.07 0.9 33.7 76 -2.8 27
03:55 1020 30.12 849 25.07 1 33.9 75 -2.9 26.8
04:00 1020 30.12 849 25.07 1.1 34 74 -3 26.7
04:05 1020 30.12 849 25.07 1.1 34 75 -2.8 26.9
04:10 1020 30.12 849 25.07 1.1 33.9 75 -2.9 26.9
04:15 1020 30.12 849 25.07 1.1 34 74 -3 26.6
04:20 1020 30.12 849 25.07 1.1 34 74 -3 26.6
04:25 1020 30.12 849 25.07 1.2 34.1 73 -3.1 26.4
04:30 1020 30.12 849 25.07 1.2 34.1 73 -3.1 26.4
04:35 1020 30.12 849 25.07 1.2 34.2 73 -3.2 26.3
04:40 1019 30.09 849 25.07 1.2 34.2 72 -3.2 26.2
04:45 1019 30.09 849 25.07 1.2 34.2 73 -3.2 26.3
04:50 1019 30.09 849 25.07 1.2 34.1 73 -3.1 26.4
04:55 1020 30.12 849 25.07 1.2 34.1 73 -3.2 26.3
05:00 1020 30.12 849 25.07 1.2 34.1 73 -3.1 26.4
05:05 1020 30.12 849 25.07 1.1 34 73 -3.1 26.4
05:10 1020 30.12 849 25.07 1.1 34 74 -3.1 26.4
05:15 1020 30.12 849 25.07 1.1 34 73 -3.2 26.3
05:20 1020 30.12 849 25.07 1.1 33.9 73 -3.1 26.3
05:25 1020 30.12 849 25.07 1 33.9 74 -3.1 26.4
05:30 1020 30.12 849 25.07 1 33.8 73 -3.2 26.2
05:35 1020 30.12 849 25.07 1.1 34 73 -3.2 26.2
05:40 1019 30.09 849 25.07 1.1 33.9 74 -3.1 26.4
05:45 1020 30.12 849 25.07 1 33.8 75 -3 26.6
05:50 1020 30.12 849 25.07 1 33.7 74 -3.1 26.4
05:55 1020 30.12 849 25.07 1 33.7 74 -3.1 26.4
06:00 1020 30.12 849 25.07 0.9 33.7 75 -3 26.6
06:05 1020 30.12 849 25.07 0.9 33.6 75 -3 26.6
06:10 1020 30.12 849 25.07 0.8 33.5 75 -3 26.6
06:15 1020 30.12 849 25.07 0.9 33.6 75 -3.1 26.4
06:20 1020 30.12 850 25.1 0.9 33.7 74 -3.1 26.3
06:25 1021 30.15 850 25.1 1 33.8 73 -3.3 26.1
06:30 1021 30.15 850 25.1 1 33.9 73 -3.2 26.2
06:35 1021 30.15 850 25.1 1 33.8 74 -3.1 26.5
06:40 1021 30.15 850 25.1 0.9 33.6 75 -3 26.5
06:45 1021 30.15 851 25.13 0.8 33.4 77 -2.9 26.9
06:50 1021 30.15 850 25.1 0.6 33.1 78 -2.9 26.9
06:55 1021 30.15 850 25.1 0.5 32.9 79 -2.8 27
07:00 1020 30.12 850 25.1 0.4 32.7 79 -2.9 26.8
07:05 1020 30.12 849 25.07 0.3 32.5 80 -2.8 26.9
07:10 1020 30.12 850 25.1 0.1 32.2 81 -2.7 27.1
07:15 1020 30.12 850 25.1 -0 31.9 83 -2.6 27.3
07:20 1020 30.12 849 25.07 -0.2 31.6 84 -2.6 27.3
07:25 1020 30.12 849 25.07 -0.3 31.5 83 -2.9 26.8
07:30 1020 30.12 849 25.07 -0.2 31.6 82 -2.9 26.8
07:35 1020 30.12 849 25.07 -0.2 31.6 81 -3.1 26.5
07:40 1020 30.12 849 25.07 -0.3 31.5 82 -3 26.7
07:45 1020 30.12 849 25.07 -0.4 31.2 83 -3 26.7
07:50 1020 30.12 849 25.07 -0.4 31.2 83 -3 26.6
07:55 1021 30.15 850 25.1 -0.4 31.4 80 -3.5 25.8
08:00 1021 30.15 850 25.1 -0.2 31.6 79 -3.5 25.7
08:05 1021 30.15 850 25.1 -0.2 31.7 78 -3.6 25.5
08:10 1020 30.12 849 25.07 -0.2 31.7 78 -3.6 25.5
08:15 1019 30.09 848 25.04 -0.4 31.3 81 -3.4 25.9
08:20 1019 30.09 848 25.04 -0.6 30.8 85 -2.9 26.9
08:25 1019 30.09 848 25.04 -0.9 30.3 87 -2.8 27
08:30 1019 30.09 848 25.04 -0.9 30.3 86 -3 26.7
08:35 1019 30.09 848 25.04 -0.8 30.6 84 -3.2 26.3
08:40 1019 30.09 848 25.04 -0.3 31.4 80 -3.4 25.9
08:45 1019 30.09 848 25.04 -0.1 31.8 78 -3.5 25.8
08:50 1019 30.09 849 25.07 -0 31.9 76 -3.8 25.2
08:55 1019 30.09 848 25.04 0.1 32.1 74 -4.1 24.6
09:00 1019 30.09 848 25.04 0.2 32.3 75 -3.8 25.2
09:05 1019 30.09 849 25.07 0.3 32.5 74 -3.8 25.2
09:10 1020 30.12 849 25.07 0.3 32.6 72 -4.1 24.6
09:15 1019 30.09 849 25.07 0.3 32.6 73 -4 24.8
09:20 1020 30.12 849 25.07 0.4 32.7 71 -4.2 24.4
09:25 1020 30.12 849 25.07 0.4 32.8 72 -4 24.8
09:30 1020 30.12 849 25.07 0.4 32.8 73 -3.9 25
09:35 1020 30.12 849 25.07 0.5 32.8 73 -3.9 25
09:40 1020 30.12 849 25.07 0.5 32.9 81 -2.5 27.5
09:45 1020 30.12 849 25.07 0.4 32.7 76 -3.4 25.8
09:50 1020 30.12 849 25.07 0.5 32.8 76 -3.3 26.1
09:55 1020 30.12 849 25.07 0.5 32.9 76 -3.2 26.2
10:00 1020 30.12 849 25.07 0.2 32.3 78 -3.2 26.2
10:05 1020 30.12 849 25.07 0 32.1 77 -3.5 25.8
10:10 1020 30.12 849 25.07 0.1 32.1 76 -3.6 25.5
10:15 1020 30.12 849 25.07 0.1 32.2 76 -3.6 25.5
10:20 1020 30.12 849 25.07 0.1 32.2 76 -3.7 25.4
10:25 1020 30.12 849 25.07 0.2 32.3 76 -3.6 25.5
10:30 1020 30.12 849 25.07 0.2 32.3 75 -3.7 25.4
10:35 1020 30.12 849 25.07 0.2 32.3 75 -3.7 25.3
10:40 1020 30.12 849 25.07 0.2 32.3 76 -3.6 25.6
10:45 1020 30.12 849 25.07 0.1 32.1 78 -3.4 26
10:50 1020 30.12 849 25.07 -0.2 31.7 79 -3.3 26
10:55 1020 30.12 849 25.07 -0.3 31.5 81 -3.2 26.3
11:00 1019 30.09 849 25.07 -0.4 31.3 83 -3 26.7
11:05 1019 30.09 848 25.04 -0.5 31 83 -3 26.6
11:10 1019 30.09 848 25.04 -0.6 31 84 -2.9 26.8
11:15 1019 30.09 849 25.07 -0.6 31 84 -3 26.7
11:20 1019 30.09 848 25.04 -0.5 31 84 -2.9 26.7
11:25 1019 30.09 848 25.04 -0.5 31.2 83 -3 26.6
11:30 1019 30.09 848 25.04 -0.4 31.3 82 -3.1 26.5
11:35 1019 30.09 848 25.04 -0.3 31.4 83 -2.9 26.8
11:40 1019 30.09 848 25.04 -0.3 31.4 82 -3 26.6
11:45 1019 30.09 848 25.04 -0.3 31.4 83 -2.8 27
11:50 1019 30.09 848 25.04 -0.3 31.5 83 -2.8 26.9
11:55 1019 30.09 848 25.04 -0.3 31.5 82 -2.9 26.8
12:00 1019 30.09 848 25.04 -0.2 31.6 83 -2.8 27
12:05 1019 30.09 848 25.04 -0.2 31.7 82 -2.8 26.9
12:10 1019 30.09 848 25.04 -0.1 31.8 81 -2.9 26.8
12:15 1019 30.09 848 25.04 -0.1 31.8 82 -2.8 26.9
12:20 1019 30.09 848 25.04 -0.1 31.8 82 -2.8 27
12:25 1019 30.09 848 25.04 -0 31.9 83 -2.5 27.4
12:30 1019 30.09 849 25.07 0 32.1 85 -2.2 28.1
12:35 1019 30.09 849 25.07 0.2 32.3 87 -1.8 28.8
12:40 1019 30.09 849 25.07 0.2 32.4 88 -1.5 29.2
12:45 1019 30.09 849 25.07 0.2 32.3 89 -1.5 29.4
12:50 1019 30.09 849 25.07 0.2 32.3 89 -1.4 29.5
12:55 1019 30.09 849 25.07 0.2 32.4 89 -1.3 29.6
13:00 1019 30.09 848 25.04 0.3 32.5 89 -1.3 29.6
13:05 1019 30.09 848 25.04 0.4 32.7 89 -1.2 29.8
13:10 1019 30.09 848 25.04 0.4 32.8 88 -1.3 29.7
13:15 1019 30.09 848 25.04 0.5 32.8 86 -1.6 29.1
13:20 1019 30.09 848 25.04 0.4 32.7 82 -2.3 27.9
13:25 1018 30.06 848 25.04 0.4 32.8 82 -2.3 27.9
13:30 1018 30.06 847 25.01 0.5 33 82 -2.3 27.9
13:35 1018 30.06 847 25.01 0.6 33.1 83 -2 28.4
13:40 1018 30.06 847 25.01 0.8 33.4 83 -1.8 28.7
13:45 1018 30.06 848 25.04 0.9 33.6 82 -1.8 28.7
13:50 1018 30.06 848 25.04 1 33.9 82 -1.7 29
13:55 1019 30.09 848 25.04 1.1 34 81 -1.8 28.8
14:00 1019 30.09 848 25.04 1.2 34.2 79 -2 28.5
14:05 1019 30.09 848 25.04 1.2 34.2 79 -2 28.4
14:10 1019 30.09 848 25.04 1.2 34.2 80 -1.9 28.7
14:15 1019 30.09 848 25.04 1.2 34.1 81 -1.8 28.8
14:20 1019 30.09 848 25.04 1.2 34.1 81 -1.7 29
14:25 1019 30.09 848 25.04 1.2 34.1 81 -1.8 28.8
14:30 1019 30.09 848 25.04 1.2 34.1 80 -1.9 28.6
14:35 1018 30.06 847 25.01 1.1 34 81 -1.8 28.7
14:40 1018 30.06 847 25.01 1.1 34 81 -1.7 28.9
14:45 1018 30.06 847 25.01 1.1 34 82 -1.7 28.9
14:50 1018 30.06 847 25.01 1.1 34 80 -1.9 28.6
14:55 1018 30.06 848 25.04 1 33.8 80 -2 28.4
15:00 1018 30.06 847 25.01 1.1 33.9 80 -2.1 28.3
15:05 1018 30.06 847 25.01 1.1 34 81 -1.9 28.6
15:10 1018 30.06 847 25.01 1.1 34 81 -1.8 28.8
15:15 1018 30.06 847 25.01 1.2 34.2 80 -1.9 28.6
15:20 1018 30.06 847 25.01 1.2 34.2 80 -1.8 28.8
15:25 1017 30.03 847 25.01 1.3 34.3 80 -1.8 28.8
15:30 1017 30.03 846 24.98 1.3 34.3 80 -1.8 28.7
15:35 1018 30.06 847 25.01 1.4 34.6 80 -1.7 29
15:40 1017 30.03 847 25.01 1.7 35 80 -1.4 29.5
15:45 1017 30.03 847 25.01 1.9 35.4 79 -1.4 29.6
15:50 1018 30.06 847 25.01 2.1 35.8 79 -1.1 30
15:55 1018 30.06 847 25.01 2.3 36.2 78 -1.2 29.8
16:00 1018 30.06 847 25.01 2.4 36.3 77 -1.3 29.7
16:05 1018 30.06 847 25.01 2.5 36.4 78 -1 30.1
16:10 1018 30.06 847 25.01 2.6 36.7 79 -0.6 30.9
16:15 1018 30.06 847 25.01 2.8 37.1 80 -0.2 31.6
16:20 1018 30.06 847 25.01 3 37.4 78 -0.5 31.2
16:25 1018 30.06 847 25.01 2.9 37.3 79 -0.3 31.5
16:30 1018 30.06 848 25.04 2.6 36.7 80 -0.6 31
16:35 1018 30.06 848 25.04 2.5 36.6 80 -0.6 31
16:40 1018 30.06 848 25.04 2.7 36.8 79 -0.5 31
16:45 1018 30.06 848 25.04 2.6 36.7 80 -0.5 31.2
16:50 1018 30.06 848 25.04 2.7 36.8 81 -0.3 31.5
16:55 1018 30.06 848 25.04 2.6 36.7 81 -0.3 31.5
17:00 1018 30.06 848 25.04 2.6 36.6 81 -0.3 31.4
17:05 1018 30.06 848 25.04 2.5 36.6 82 -0.2 31.6
17:10 1018 30.06 848 25.04 2.5 36.4 82 -0.3 31.4
17:15 1018 30.06 847 25.01 2.3 36.1 84 -0.2 31.6
17:20 1018 30.06 847 25.01 2.1 35.9 84 -0.2 31.6
17:25 1018 30.06 847 25.01 2.1 35.7 85 -0.3 31.5
17:30 1017 30.03 846 24.98 2 35.6 84 -0.3 31.4
17:35 1018 30.06 847 25.01 2 35.6 84 -0.5 31.2
17:40 1018 30.06 847 25.01 2 35.7 83 -0.5 31.1
17:45 1018 30.06 847 25.01 2 35.7 83 -0.5 31
17:50 1018 30.06 847 25.01 2 35.6 83 -0.5 31.1
17:55 1018 30.06 847 25.01 2 35.5 84 -0.5 31.1
18:00 1018 30.06 847 25.01 1.9 35.4 83 -0.7 30.7
18:05 1018 30.06 847 25.01 1.9 35.4 82 -0.9 30.5
18:10 1018 30.06 847 25.01 2 35.6 81 -1 30.2
18:15 1018 30.06 847 25.01 2.2 35.9 80 -1 30.2
18:20 1017 30.03 847 25.01 2.3 36.1 79 -0.9 30.3
18:25 1018 30.06 847 25.01 2.4 36.3 81 -0.5 31
18:30 1018 30.06 847 25.01 2.5 36.5 80 -0.5 31
18:35 1018 30.06 847 25.01 2.5 36.4 81 -0.5 31.2
18:40 1018 30.06 847 25.01 2.5 36.5 81 -0.4 31.3
18:45 1018 30.06 848 25.04 2.5 36.5 82 -0.2 31.6
18:50 1018 30.06 848 25.04 2.4 36.4 83 -0.1 31.7
18:55 1018 30.06 848 25.04 2.4 36.3 84 -0.1 31.9
19:00 1018 30.06 848 25.04 2.3 36.1 84 -0.1 31.9
19:05 1019 30.09 848 25.04 2.2 36 85 -0.1 31.8
19:10 1019 30.09 848 25.04 2.2 36 84 -0.1 31.8
19:15 1019 30.09 848 25.04 2.1 35.8 85 -0.2 31.6
19:20 1019 30.09 848 25.04 2 35.7 85 -0.2 31.6
19:25 1018 30.06 848 25.04 1.9 35.5 86 -0.2 31.6
19:30 1018 30.06 848 25.04 1.7 35 86 -0.4 31.3
19:35 1018 30.06 848 25.04 1.5 34.7 87 -0.4 31.2
19:40 1018 30.06 848 25.04 1.4 34.5 87 -0.5 31.1
19:45 1018 30.06 848 25.04 1.3 34.4 88 -0.4 31.2
19:50 1018 30.06 848 25.04 1.3 34.3 88 -0.5 31.2
19:55 1018 30.06 848 25.04 1.2 34.2 88 -0.5 31
20:00 1018 30.06 847 25.01 1.1 34 88 -0.6 30.9
20:05 1018 30.06 847 25.01 1.1 33.9 88 -0.7 30.8
20:10 1018 30.06 848 25.04 1.1 33.9 88 -0.7 30.7
20:15 1018 30.06 848 25.04 0.9 33.7 88 -0.8 30.5
20:20 1018 30.06 848 25.04 0.9 33.6 88 -0.9 30.4
20:25 1018 30.06 848 25.04 0.8 33.5 88 -1 30.3
20:30 1018 30.06 848 25.04 0.8 33.5 88 -0.8 30.5
20:35 1019 30.09 848 25.04 0.9 33.6 89 -0.8 30.6
20:40 1019 30.09 848 25.04 1 33.9 89 -0.6 30.9
20:45 1019 30.09 849 25.07 1.3 34.4 87 -0.6 30.9
20:50 1020 30.12 849 25.07 1.3 34.4 87 -0.6 30.9
20:55 1019 30.09 849 25.07 1 33.8 88 -0.7 30.7
21:00 1019 30.09 849 25.07 1.2 34.1 88 -0.6 31
21:05 1019 30.09 848 25.04 1 33.8 89 -0.5 31
21:10 1019 30.09 848 25.04 0.9 33.6 90 -0.5 31.1
21:15 1019 30.09 848 25.04 1 33.7 91 -0.4 31.3
21:20 1019 30.09 848 25.04 0.9 33.7 91 -0.4 31.3
21:25 1018 30.06 848 25.04 1 33.8 90 -0.4 31.3
21:30 1018 30.06 848 25.04 1.1 34 90 -0.3 31.4
21:35 1018 30.06 848 25.04 1.2 34.1 90 -0.3 31.5
21:40 1019 30.09 848 25.04 1.3 34.3 90 -0.2 31.6
21:45 1019 30.09 848 25.04 1.4 34.6 89 -0.2 31.6
21:50 1019 30.09 848 25.04 1.5 34.7 89 -0.2 31.7
21:55 1019 30.09 848 25.04 1.5 34.8 89 -0.1 31.8
22:00 1018 30.06 848 25.04 1.6 34.8 89 -0.1 31.9
22:05 1018 30.06 848 25.04 1.6 35 89 -0 32
22:10 1019 30.09 848 25.04 1.6 34.9 89 -0 31.9
22:15 1019 30.09 848 25.04 1.7 35.1 88 -0.1 31.9
22:20 1018 30.06 848 25.04 1.7 35 88 -0.2 31.7
22:25 1018 30.06 847 25.01 1.6 34.8 88 -0.2 31.7
22:30 1018 30.06 848 25.04 1.6 35 88 -0.2 31.6
22:35 1018 30.06 848 25.04 1.6 34.9 88 -0.2 31.6
22:40 1018 30.06 848 25.04 1.7 35.1 87 -0.2 31.7
22:45 1018 30.06 848 25.04 1.9 35.3 87 -0 31.9
22:50 1019 30.09 848 25.04 1.9 35.5 86 -0.1 31.8
22:55 1019 30.09 848 25.04 1.6 34.9 88 -0.2 31.6
23:00 1019 30.09 848 25.04 1.6 34.8 88 -0.2 31.6
23:05 1019 30.09 848 25.04 1.6 34.8 88 -0.2 31.6
23:10 1019 30.09 848 25.04 1.4 34.5 88 -0.4 31.3
23:15 1019 30.09 848 25.04 1.1 34 89 -0.5 31.1
23:20 1019 30.09 848 25.04 1.1 33.9 89 -0.5 31.1
23:25 1019 30.09 848 25.04 1.2 34.1 89 -0.4 31.3
23:30 1019 30.09 848 25.04 1.2 34.2 89 -0.3 31.4
23:35 1019 30.09 848 25.04 1.2 34.1 90 -0.3 31.4
23:40 1019 30.09 848 25.04 1.2 34.1 90 -0.3 31.4
23:45 1019 30.09 848 25.04 1 33.9 89 -0.5 31.1
23:50 1019 30.09 848 25.04 0.8 33.5 90 -0.7 30.8
23:55 1018 30.06 848 25.04 0.7 33.3 90 -0.7 30.7
24:00 1018 30.06 848 25.04 0.8 33.5 91 -0.5 31